createdAt,value
2023-03-27T00:01:02.566Z,40.55
2023-03-27T00:06:17.257Z,40.95
2023-03-27T00:11:25.859Z,41.04
2023-03-27T00:16:28.108Z,41.46
2023-03-27T00:21:30.241Z,41.00
2023-03-27T00:26:32.388Z,40.79
2023-03-27T00:31:34.621Z,40.89
2023-03-27T00:36:36.694Z,42.87
2023-03-27T00:41:38.874Z,41.94
2023-03-27T00:46:44.341Z,42.07
2023-03-27T00:51:48.143Z,42.33
2023-03-27T00:56:51.731Z,42.50
2023-03-27T01:01:54.098Z,42.64
2023-03-27T01:06:57.042Z,42.29
2023-03-27T01:12:11.975Z,42.67
2023-03-27T01:17:41.223Z,42.53
2023-03-27T01:23:08.648Z,42.21
2023-03-27T01:28:55.142Z,43.02
2023-03-27T01:34:03.199Z,42.64
2023-03-27T01:39:27.327Z,42.50
2023-03-27T01:44:43.415Z,42.84
2023-03-27T01:50:01.939Z,42.42
2023-03-27T01:55:10.073Z,42.55
2023-03-27T02:00:19.632Z,42.43
2023-03-27T02:05:37.639Z,42.04
2023-03-27T02:10:43.648Z,42.14
2023-03-27T02:15:50.105Z,42.82
2023-03-27T02:20:52.280Z,42.81
2023-03-27T02:25:55.521Z,42.26
2023-03-27T02:31:33.794Z,42.57
2023-03-27T02:37:04.138Z,43.61
2023-03-27T02:42:23.807Z,45.29
2023-03-27T02:47:33.888Z,44.23
2023-03-27T02:52:44.697Z,44.41
2023-03-27T02:57:52.416Z,43.91
2023-03-27T03:03:05.958Z,44.03
2023-03-27T03:08:10.591Z,44.08
2023-03-27T03:13:12.926Z,43.83
2023-03-27T03:18:15.126Z,44.09
2023-03-27T03:23:17.251Z,44.52
2023-03-27T03:28:19.929Z,44.77
2023-03-27T03:33:22.364Z,44.76
2023-03-27T03:38:27.568Z,45.01
2023-03-27T03:43:32.337Z,45.00
2023-03-27T03:48:34.447Z,45.24
2023-03-27T03:53:36.842Z,44.87
2023-03-27T03:58:39.149Z,45.34
2023-03-27T04:03:41.870Z,44.93
2023-03-27T04:08:45.408Z,45.35
2023-03-27T04:13:48.407Z,45.23
2023-03-27T04:18:54.648Z,45.45
2023-03-27T04:24:02.880Z,45.19
2023-03-27T04:29:10.625Z,44.74
2023-03-27T04:34:12.741Z,44.47
2023-03-27T04:39:16.758Z,44.83
2023-03-27T04:44:19.087Z,44.63
2023-03-27T04:49:21.231Z,44.66
2023-03-27T04:54:24.360Z,44.93
2023-03-27T04:59:26.472Z,44.49
2023-03-27T05:04:29.353Z,44.79
2023-03-27T05:09:31.534Z,44.57
2023-03-27T05:14:33.578Z,44.55
2023-03-27T05:19:35.805Z,44.74
2023-03-27T05:24:38.350Z,45.10
2023-03-27T05:29:47.097Z,45.22
2023-03-27T05:34:54.894Z,47.98
2023-03-27T05:39:57.179Z,47.30
2023-03-27T05:44:59.374Z,46.56
2023-03-27T05:50:01.923Z,46.14
2023-03-27T05:55:05.269Z,45.54
2023-03-27T06:00:12.049Z,45.22
2023-03-27T06:05:14.672Z,45.38
2023-03-27T06:10:20.601Z,45.12
2023-03-27T06:15:22.738Z,44.78
2023-03-27T06:20:25.526Z,44.30
2023-03-27T06:25:32.375Z,43.93
2023-03-27T06:30:35.363Z,43.48
2023-03-27T06:35:37.723Z,43.18
2023-03-27T06:40:39.934Z,43.05
2023-03-27T06:45:45.639Z,42.72
2023-03-27T06:50:50.124Z,42.48
2023-03-27T06:55:52.428Z,42.04
2023-03-27T07:00:54.547Z,41.76
2023-03-27T07:05:57.218Z,41.04
2023-03-27T07:11:11.791Z,41.03
2023-03-27T07:16:14.589Z,40.18
2023-03-27T07:21:16.882Z,39.93
2023-03-27T07:26:19.082Z,39.64
2023-03-27T07:31:36.527Z,39.46
2023-03-27T07:36:45.184Z,39.40
2023-03-27T07:41:47.307Z,39.25
2023-03-27T07:46:52.399Z,38.67
2023-03-27T07:51:54.592Z,38.17
2023-03-27T07:56:57.547Z,37.51
2023-03-27T08:01:59.822Z,37.00
2023-03-27T08:07:02.529Z,36.15
2023-03-27T08:12:07.082Z,36.07
2023-03-27T08:17:16.342Z,35.71
2023-03-27T08:22:21.361Z,35.67
2023-03-27T08:27:24.011Z,34.78
2023-03-27T08:32:26.805Z,34.29
2023-03-27T08:37:29.218Z,34.20
2023-03-27T08:42:37.433Z,33.51
2023-03-27T08:47:44.817Z,33.81
2023-03-27T08:52:47.952Z,33.36
2023-03-27T08:57:52.090Z,33.30
2023-03-27T09:03:01.817Z,33.40
2023-03-27T09:08:20.457Z,33.77
2023-03-27T09:13:38.546Z,33.54
2023-03-27T09:18:56.467Z,33.65
2023-03-27T09:24:01.643Z,33.43
2023-03-27T09:29:19.875Z,33.38
2023-03-27T09:34:28.101Z,33.12
2023-03-27T09:39:34.351Z,32.70
2023-03-27T09:44:41.841Z,32.01
2023-03-27T09:49:53.486Z,32.19
2023-03-27T09:54:56.501Z,32.11
2023-03-27T10:00:02.978Z,31.94
2023-03-27T10:05:16.118Z,31.82
2023-03-27T10:10:20.549Z,32.00
2023-03-27T10:15:36.682Z,32.17
2023-03-27T10:20:49.436Z,31.74
2023-03-27T10:25:52.885Z,31.86
2023-03-27T10:31:01.119Z,31.22
2023-03-27T10:36:08.840Z,31.14
2023-03-27T10:41:28.005Z,31.27
2023-03-27T10:46:40.425Z,30.91
2023-03-27T10:52:00.785Z,31.06
2023-03-27T10:57:10.234Z,31.64
2023-03-27T11:02:25.939Z,30.90
2023-03-27T11:07:38.117Z,29.80
2023-03-27T11:12:43.129Z,29.69
2023-03-27T11:18:01.243Z,29.97
2023-03-27T11:23:10.801Z,30.47
2023-03-27T11:28:31.402Z,30.35
2023-03-27T11:33:52.451Z,30.91
2023-03-27T11:39:17.154Z,31.13
2023-03-27T11:44:19.676Z,30.94
2023-03-27T11:49:47.568Z,31.48
2023-03-27T11:55:11.122Z,31.65
2023-03-27T12:00:16.721Z,32.70
2023-03-27T12:05:34.330Z,32.43
2023-03-27T12:10:42.862Z,32.37
2023-03-27T12:16:06.791Z,32.68
2023-03-27T12:21:24.326Z,33.50
2023-03-27T12:26:47.062Z,33.56
2023-03-27T12:32:16.922Z,34.73
2023-03-27T12:37:25.290Z,34.81
2023-03-27T12:42:48.394Z,35.00
2023-03-27T12:48:11.819Z,34.05
2023-03-27T12:53:37.459Z,33.59
2023-03-27T12:58:41.474Z,34.63
2023-03-27T13:03:44.066Z,33.55
2023-03-27T13:08:58.138Z,34.09
2023-03-27T13:14:32.846Z,33.96
2023-03-27T13:19:50.064Z,33.79
2023-03-27T13:25:16.407Z,32.58
2023-03-27T13:30:41.630Z,32.73
2023-03-27T13:35:59.441Z,32.59
2023-03-27T13:41:38.596Z,33.37
2023-03-27T13:46:48.223Z,33.11
2023-03-27T13:52:17.672Z,33.58
2023-03-27T13:57:47.302Z,33.07
2023-03-27T14:03:14.967Z,31.58
2023-03-27T14:08:29.445Z,33.01
2023-03-27T14:13:39.713Z,33.14
2023-03-27T14:19:21.589Z,31.48
2023-03-27T14:24:46.147Z,30.80
2023-03-27T14:29:52.313Z,32.47
2023-03-27T14:34:54.826Z,31.12
2023-03-27T14:39:59.242Z,30.51
2023-03-27T14:45:24.953Z,30.41
2023-03-27T14:50:28.599Z,30.09
2023-03-27T14:55:34.804Z,31.07
2023-03-27T15:00:41.675Z,32.13
2023-03-27T15:06:02.208Z,32.82
2023-03-27T15:11:11.345Z,30.14
2023-03-27T15:16:21.746Z,31.38
2023-03-27T15:21:39.497Z,31.71
2023-03-27T15:26:41.937Z,30.51
2023-03-27T15:31:48.092Z,30.05
2023-03-27T15:36:57.568Z,29.18
2023-03-27T15:42:12.947Z,26.70
2023-03-27T15:47:30.464Z,26.10
2023-03-27T15:52:34.524Z,27.18
2023-03-27T15:57:37.054Z,26.65
2023-03-27T16:02:40.817Z,24.24
2023-03-27T16:07:48.996Z,23.87
2023-03-27T16:12:57.611Z,26.34
2023-03-27T16:18:04.634Z,26.74
2023-03-27T16:23:06.873Z,26.58
2023-03-27T16:28:10.275Z,28.99
2023-03-27T16:33:17.892Z,29.61
2023-03-27T16:38:20.397Z,30.68
2023-03-27T16:43:22.509Z,31.11
2023-03-27T16:48:24.641Z,31.49
2023-03-27T16:53:26.850Z,31.03
2023-03-27T16:58:28.964Z,31.21
2023-03-27T17:03:31.372Z,31.63
2023-03-27T17:08:34.242Z,32.02
2023-03-27T17:13:37.249Z,32.18
2023-03-27T17:18:41.352Z,33.93
2023-03-27T17:23:43.920Z,31.24
2023-03-27T17:28:48.731Z,31.13
2023-03-27T17:33:50.936Z,31.07
2023-03-27T17:38:53.526Z,31.31
2023-03-27T17:43:55.609Z,30.72
2023-03-27T17:48:58.345Z,31.73
2023-03-27T17:54:00.520Z,31.26
2023-03-27T17:59:02.772Z,31.63
2023-03-27T18:04:05.037Z,31.46
2023-03-27T18:09:07.759Z,31.98
2023-03-27T18:14:10.118Z,32.02
2023-03-27T18:19:13.151Z,33.79
2023-03-27T18:24:15.850Z,34.59
2023-03-27T18:29:18.006Z,35.08
2023-03-27T18:34:20.311Z,36.07
2023-03-27T18:39:22.590Z,36.76
2023-03-27T18:44:24.861Z,36.12
2023-03-27T18:49:27.077Z,37.20
2023-03-27T18:54:29.197Z,38.03
2023-03-27T18:59:31.506Z,37.60
2023-03-27T19:04:33.603Z,36.90
2023-03-27T19:09:41.272Z,36.79
2023-03-27T19:14:43.965Z,36.19
2023-03-27T19:19:46.701Z,36.65
2023-03-27T19:24:48.996Z,36.25
2023-03-27T19:29:51.588Z,37.15
2023-03-27T19:34:53.820Z,37.00
2023-03-27T19:39:56.166Z,37.76
2023-03-27T19:44:58.422Z,37.43
2023-03-27T19:50:00.654Z,38.82
2023-03-27T19:55:02.868Z,41.65
2023-03-27T20:00:10.725Z,42.64
2023-03-27T20:05:13.220Z,43.21
2023-03-27T20:10:16.449Z,43.82
2023-03-27T20:15:18.629Z,44.26
2023-03-27T20:20:20.793Z,44.49
2023-03-27T20:25:23.003Z,45.41
2023-03-27T20:30:25.601Z,44.98
2023-03-27T20:35:27.757Z,44.11
2023-03-27T20:40:34.762Z,43.70
2023-03-27T20:45:44.744Z,44.22
2023-03-27T20:50:55.823Z,46.80
2023-03-27T20:56:03.870Z,48.82
2023-03-27T21:01:09.389Z,51.12
2023-03-27T21:06:15.125Z,51.48
2023-03-27T21:11:17.279Z,54.87
2023-03-27T21:16:19.449Z,54.44
2023-03-27T21:21:21.845Z,53.69
2023-03-27T21:26:24.350Z,53.43
2023-03-27T21:31:26.655Z,54.13
2023-03-27T21:36:29.742Z,54.75
2023-03-27T21:41:32.398Z,55.61
2023-03-27T21:46:34.657Z,54.51
2023-03-27T21:51:36.944Z,52.27
2023-03-27T21:56:39.174Z,51.67
2023-03-27T22:01:41.351Z,51.47
2023-03-27T22:06:44.653Z,50.59
2023-03-27T22:11:47.145Z,51.07
2023-03-27T22:16:49.234Z,49.29
2023-03-27T22:21:51.383Z,48.77
2023-03-27T22:26:53.703Z,48.04
2023-03-27T22:31:55.962Z,46.87
2023-03-27T22:36:58.100Z,45.65
2023-03-27T22:42:00.263Z,44.40
2023-03-27T22:47:02.629Z,43.90
2023-03-27T22:52:05.326Z,43.47
2023-03-27T22:57:07.639Z,43.21
2023-03-27T23:02:09.876Z,42.92
2023-03-27T23:07:12.431Z,42.85
2023-03-27T23:12:14.585Z,42.42
2023-03-27T23:17:16.759Z,42.56
2023-03-27T23:22:19.213Z,42.65
2023-03-27T23:27:21.475Z,42.22
2023-03-27T23:32:23.611Z,42.14
2023-03-27T23:37:29.099Z,42.21
2023-03-27T23:42:32.527Z,41.63
2023-03-27T23:47:34.642Z,41.23
2023-03-27T23:52:37.284Z,40.76
2023-03-27T23:57:39.445Z,40.79
